Time;durP1;ratioP1;P1;durP2;ratioP2;P2;SDS_P1;SDS_P2;PMS_P1;PMS_P2;Temp;Humidity;BMP_temperature;BMP_pressure;BME280_temperature;BME280_humidity;BME280_pressure;Samples;Min_cycle;Max_cycle;Signal;HPM_P1;HPM_P2
2021/08/23 00:01:22;;;;;;;;;;;;;;;37.19;17.03;94692.00;5114386;28;19930;-54
2021/08/23 00:03:48;;;;;;;;;;;;;;;37.11;16.98;94690.78;5114698;28;19916;-52
2021/08/23 00:06:15;;;;;;;;;;;;;;;36.97;17.29;94691.38;5114202;28;20237;-52
2021/08/23 00:08:42;;;;;;;;;;;;;;;37.38;16.64;94692.09;5114531;28;19920;-54
2021/08/23 00:11:09;;;;;;;;;;;;;;;37.23;16.59;94692.66;5119522;28;19926;-53
2021/08/23 00:13:36;;;;;;;;;;;;;;;37.05;16.87;94698.03;5135468;28;19924;-55
2021/08/23 00:16:03;;;;;;;;;;;;;;;37.00;17.14;94695.91;5135386;28;19919;-54
2021/08/23 00:18:29;;;;;;;;;;;;;;;36.95;16.91;94704.66;5135046;28;19922;-54
2021/08/23 00:21:01;;;;;;;;;;;;;;;36.90;17.02;94697.06;5134166;28;19931;-55
2021/08/23 00:23:35;;;;;;;;;;;;;;;37.11;17.23;94707.13;5135149;28;19915;-56
2021/08/23 00:26:02;;;;;;;;;;;;;;;36.83;17.29;94703.56;5137060;27;19916;-54
2021/08/23 00:28:29;;;;;;;;;;;;;;;37.08;17.06;94702.59;5138053;27;19919;-53
2021/08/23 00:30:55;;;;;;;;;;;;;;;36.73;17.72;94700.03;5139178;27;19922;-54
2021/08/23 00:33:22;;;;;;;;;;;;;;;36.87;17.51;94708.88;5139048;27;20245;-56
2021/08/23 00:35:49;;;;;;;;;;;;;;;36.84;17.68;94705.06;5139151;27;20317;-55
2021/08/23 00:38:16;;;;;;;;;;;;;;;36.93;17.38;94709.78;5139495;27;19922;-54
2021/08/23 00:40:43;;;;;;;;;;;;;;;36.58;17.96;94711.88;5128113;27;20650;-55
2021/08/23 00:43:10;;;;;;;;;;;;;;;36.68;17.81;94713.44;5117795;28;19927;-52
2021/08/23 00:45:37;;;;;;;;;;;;;;;36.45;18.46;94711.97;5118292;28;19939;-55
2021/08/23 00:48:04;;;;;;;;;;;;;;;36.69;18.03;94714.94;5118181;28;19927;-55
2021/08/23 00:50:33;;;;;;;;;;;;;;;36.53;17.71;94715.94;5135848;27;19920;-53
2021/08/23 00:53:00;;;;;;;;;;;;;;;36.42;18.10;94718.28;5139177;27;19923;-54
2021/08/23 00:55:27;;;;;;;;;;;;;;;36.47;17.69;94720.47;5121175;27;19958;-53
2021/08/23 00:57:53;;;;;;;;;;;;;;;36.24;17.95;94710.75;5139099;27;19923;-53
2021/08/23 01:00:20;;;;;;;;;;;;;;;36.23;17.89;94711.97;5137981;27;19934;-52
2021/08/23 01:02:49;;;;;;;;;;;;;;;36.32;18.06;94711.28;5138372;27;19920;-53
2021/08/23 01:05:22;;;;;;;;;;;;;;;36.24;17.99;94708.03;5138712;27;19919;-53
2021/08/23 01:07:50;;;;;;;;;;;;;;;36.18;17.72;94715.25;5138542;27;19920;-53
2021/08/23 01:10:20;;;;;;;;;;;;;;;36.11;17.79;94715.50;5139522;27;20233;-53
2021/08/23 01:12:47;;;;;;;;;;;;;;;35.95;18.22;94719.19;5159741;27;19922;-55
2021/08/23 01:15:14;;;;;;;;;;;;;;;36.03;18.16;94709.56;5139900;27;19926;-60
2021/08/23 01:17:41;;;;;;;;;;;;;;;35.90;18.30;94717.00;5159208;27;19919;-51
2021/08/23 01:20:08;;;;;;;;;;;;;;;35.97;18.34;94716.78;5133348;27;20514;-51
2021/08/23 01:22:37;;;;;;;;;;;;;;;35.93;18.22;94721.56;5120031;27;20324;-55
2021/08/23 01:25:04;;;;;;;;;;;;;;;35.71;18.36;94709.88;5120192;27;19947;-57
2021/08/23 01:27:33;;;;;;;;;;;;;;;35.88;18.14;94702.31;5119805;27;19924;-53
2021/08/23 01:30:10;;;;;;;;;;;;;;;35.68;18.33;94716.19;5137121;27;20396;-53
2021/08/23 01:32:37;;;;;;;;;;;;;;;35.64;18.48;94710.09;5137560;27;19926;-54
2021/08/23 01:35:05;;;;;;;;;;;;;;;35.65;18.28;94712.38;5119359;27;20337;-53
2021/08/23 01:37:33;;;;;;;;;;;;;;;35.85;18.25;94706.69;5136496;27;19915;-53
2021/08/23 01:39:59;;;;;;;;;;;;;;;35.81;18.16;94708.75;5135673;27;19920;-52
2021/08/23 01:42:26;;;;;;;;;;;;;;;35.71;18.48;94709.88;5134536;27;19923;-54
2021/08/23 01:44:53;;;;;;;;;;;;;;;35.82;18.02;94702.09;5136926;27;20306;-53
2021/08/23 01:47:20;;;;;;;;;;;;;;;35.79;18.26;94697.56;5136190;27;19919;-54
2021/08/23 01:49:47;;;;;;;;;;;;;;;35.67;18.49;94698.38;5136307;27;19916;-54
2021/08/23 01:52:14;;;;;;;;;;;;;;;35.69;18.72;94699.44;5137016;27;20302;-52
2021/08/23 01:54:42;;;;;;;;;;;;;;;35.79;18.38;94701.03;5138224;27;20206;-52
2021/08/23 01:57:09;;;;;;;;;;;;;;;35.69;18.61;94707.59;5137856;27;19927;-53
2021/08/23 01:59:36;;;;;;;;;;;;;;;35.38;19.02;94699.28;5136553;27;20328;-55
2021/08/23 02:02:03;;;;;;;;;;;;;;;35.40;18.89;94702.34;5136633;27;20581;-56
2021/08/23 02:04:31;;;;;;;;;;;;;;;35.37;18.94;94702.44;5137194;27;19923;-52
2021/08/23 02:06:58;;;;;;;;;;;;;;;35.49;19.01;94698.97;5137070;27;19923;-52
2021/08/23 02:09:24;;;;;;;;;;;;;;;35.62;18.68;94696.19;5137574;27;19923;-57
2021/08/23 02:11:51;;;;;;;;;;;;;;;35.37;19.03;94697.78;5111159;27;19930;-54
2021/08/23 02:14:18;;;;;;;;;;;;;;;35.42;18.96;94699.19;5116732;28;19924;-56
2021/08/23 02:16:45;;;;;;;;;;;;;;;35.21;19.19;94689.75;5116353;28;19923;-55
2021/08/23 02:19:12;;;;;;;;;;;;;;;35.31;19.10;94694.06;5103845;28;19928;-53
2021/08/23 02:21:52;;;;;;;;;;;;;;;35.45;19.20;94696.34;5103971;28;19927;-52
2021/08/23 02:24:19;;;;;;;;;;;;;;;35.40;19.13;94690.72;5116638;28;19916;-53
2021/08/23 02:26:46;;;;;;;;;;;;;;;35.36;19.11;94690.81;5116533;28;20424;-53
2021/08/23 02:29:12;;;;;;;;;;;;;;;35.44;19.18;94692.13;5115895;28;19920;-54
2021/08/23 02:31:39;;;;;;;;;;;;;;;35.45;19.27;94682.00;5115913;28;19924;-53
2021/08/23 02:34:06;;;;;;;;;;;;;;;35.39;19.32;94684.50;5116362;28;19920;-55
2021/08/23 02:36:34;;;;;;;;;;;;;;;35.63;18.98;94684.13;5115961;28;19930;-59
2021/08/23 02:39:01;;;;;;;;;;;;;;;35.40;19.37;94682.56;5114072;28;19920;-54
2021/08/23 02:41:28;;;;;;;;;;;;;;;35.54;19.25;94685.56;5109904;28;19920;-53
2021/08/23 02:43:54;;;;;;;;;;;;;;;35.35;19.26;94689.31;5116169;28;20245;-55
2021/08/23 02:46:21;;;;;;;;;;;;;;;35.51;19.16;94689.16;5116013;28;19927;-53
2021/08/23 02:48:48;;;;;;;;;;;;;;;35.33;19.17;94686.22;5114815;28;19915;-53
2021/08/23 02:51:15;;;;;;;;;;;;;;;35.44;19.25;94686.69;5115598;28;19916;-50
2021/08/23 02:53:42;;;;;;;;;;;;;;;35.62;19.04;94686.06;5116389;28;20226;-55
2021/08/23 02:56:09;;;;;;;;;;;;;;;35.20;19.52;94688.22;5116528;28;19923;-54
2021/08/23 02:58:35;;;;;;;;;;;;;;;34.98;19.71;94690.09;5115491;28;19922;-54
2021/08/23 03:01:02;;;;;;;;;;;;;;;35.30;19.48;94692.53;5115427;28;19931;-56
2021/08/23 03:03:29;;;;;;;;;;;;;;;35.18;19.60;94696.06;5115865;28;19916;-54
2021/08/23 03:05:56;;;;;;;;;;;;;;;35.02;19.64;94688.78;5116206;28;19924;-54
2021/08/23 03:08:23;;;;;;;;;;;;;;;35.11;19.62;94688.13;5115928;28;19915;-56
2021/08/23 03:10:54;;;;;;;;;;;;;;;35.13;19.68;94696.59;5114244;28;19930;-53
2021/08/23 03:13:21;;;;;;;;;;;;;;;35.14;19.63;94696.19;5115375;28;19923;-54
2021/08/23 03:15:49;;;;;;;;;;;;;;;35.23;19.57;94692.78;5115122;28;19923;-54
2021/08/23 03:18:16;;;;;;;;;;;;;;;35.01;19.79;94703.56;5115423;28;20231;-53
2021/08/23 03:20:42;;;;;;;;;;;;;;;35.24;19.57;94699.75;5114748;28;20306;-53
2021/08/23 03:23:09;;;;;;;;;;;;;;;35.16;19.75;94698.47;5114417;28;19915;-54
2021/08/23 03:25:36;;;;;;;;;;;;;;;35.16;19.75;94696.50;5114834;28;19946;-53
2021/08/23 03:28:03;;;;;;;;;;;;;;;35.16;19.82;94698.47;5114908;28;20242;-53
2021/08/23 03:30:30;;;;;;;;;;;;;;;34.93;20.19;94697.59;5115180;28;20326;-53
2021/08/23 03:32:57;;;;;;;;;;;;;;;35.27;19.74;94709.72;5115030;28;19922;-52
2021/08/23 03:35:24;;;;;;;;;;;;;;;34.76;20.20;94704.28;5115520;28;20230;-53
2021/08/23 03:37:51;;;;;;;;;;;;;;;34.98;19.74;94703.69;5115202;28;19928;-53
2021/08/23 03:40:18;;;;;;;;;;;;;;;34.90;20.18;94693.03;5108222;28;19920;-53
2021/08/23 03:42:45;;;;;;;;;;;;;;;35.00;19.89;94701.28;5109901;28;19931;-52
2021/08/23 03:45:12;;;;;;;;;;;;;;;35.15;19.89;94707.81;5115577;28;19927;-54
2021/08/23 03:47:40;;;;;;;;;;;;;;;35.37;19.60;94702.44;5115024;28;19915;-53
2021/08/23 03:50:07;;;;;;;;;;;;;;;35.08;20.18;94714.19;5114890;28;19923;-53
2021/08/23 03:52:34;;;;;;;;;;;;;;;34.86;20.05;94708.66;5113900;28;19926;-53
2021/08/23 03:55:02;;;;;;;;;;;;;;;34.99;19.97;94711.38;5114959;28;20335;-53
2021/08/23 03:57:32;;;;;;;;;;;;;;;34.93;20.13;94713.91;5114338;28;19920;-55
2021/08/23 03:59:59;;;;;;;;;;;;;;;34.96;20.09;94708.78;5114992;28;20329;-53
2021/08/23 04:02:26;;;;;;;;;;;;;;;35.06;20.01;94707.69;5118002;28;19924;-57
2021/08/23 04:04:53;;;;;;;;;;;;;;;34.75;20.23;94708.22;5119097;28;20298;-51
2021/08/23 04:07:19;;;;;;;;;;;;;;;35.10;19.90;94719.94;5119611;28;19926;-52
2021/08/23 04:09:46;;;;;;;;;;;;;;;34.92;20.05;94712.38;5118758;28;19927;-54
2021/08/23 04:12:13;;;;;;;;;;;;;;;34.99;20.20;94711.38;5118092;28;19919;-53
2021/08/23 04:14:40;;;;;;;;;;;;;;;34.81;20.38;94714.63;5119371;28;20238;-53
2021/08/23 04:17:07;;;;;;;;;;;;;;;34.86;20.11;94708.66;5118732;28;19923;-53
2021/08/23 04:19:34;;;;;;;;;;;;;;;35.16;19.91;94709.31;5119329;28;19923;-53
2021/08/23 04:22:01;;;;;;;;;;;;;;;35.43;19.93;94706.91;5119482;28;20333;-57
2021/08/23 04:24:28;;;;;;;;;;;;;;;35.26;20.04;94708.22;5119094;28;20321;-54
2021/08/23 04:26:55;;;;;;;;;;;;;;;35.47;19.89;94710.28;5118997;28;19927;-53
2021/08/23 04:29:22;;;;;;;;;;;;;;;35.90;19.66;94708.84;5119021;28;19916;-53
2021/08/23 04:31:48;;;;;;;;;;;;;;;36.10;19.26;94708.53;5119545;28;19928;-55
2021/08/23 04:34:15;;;;;;;;;;;;;;;36.52;18.70;94717.16;5116850;28;19923;-72
2021/08/23 04:36:42;;;;;;;;;;;;;;;36.66;18.89;94716.59;5115091;28;19927;-47
2021/08/23 04:39:09;;;;;;;;;;;;;;;36.90;18.55;94716.13;5097997;28;19920;-55
2021/08/23 04:41:37;;;;;;;;;;;;;;;37.04;18.69;94718.31;5114332;28;19920;-56
2021/08/23 04:44:04;;;;;;;;;;;;;;;37.37;18.48;94715.09;5115288;28;19935;-55
2021/08/23 04:46:31;;;;;;;;;;;;;;;37.54;18.15;94716.34;5098075;28;19920;-53
2021/08/23 04:48:57;;;;;;;;;;;;;;;37.62;18.20;94712.13;5098825;28;19974;-57
2021/08/23 04:51:25;;;;;;;;;;;;;;;37.50;17.94;94718.47;5100485;28;19923;-56
2021/08/23 04:53:52;;;;;;;;;;;;;;;37.45;17.75;94708.16;5118383;28;19922;-59
2021/08/23 04:56:18;;;;;;;;;;;;;;;37.86;17.34;94709.59;5119054;28;20306;-56
2021/08/23 04:58:45;;;;;;;;;;;;;;;37.73;17.78;94712.44;5099576;28;19920;-57
2021/08/23 05:01:12;;;;;;;;;;;;;;;37.80;17.63;94706.72;5098279;28;19924;-59
2021/08/23 05:03:40;;;;;;;;;;;;;;;38.08;17.18;94709.44;5118519;28;20310;-56
2021/08/23 05:06:07;;;;;;;;;;;;;;;37.91;17.62;94711.69;5118430;28;19916;-55
2021/08/23 05:08:34;;;;;;;;;;;;;;;36.58;19.31;94720.81;5118270;28;19981;-56
2021/08/23 05:11:01;;;;;;;;;;;;;;;36.24;19.27;94708.03;5117873;28;19931;-56
2021/08/23 05:13:27;;;;;;;;;;;;;;;36.22;19.33;94709.69;5112463;28;19923;-56
2021/08/23 05:15:55;;;;;;;;;;;;;;;36.06;19.61;94708.66;5118454;28;20542;-54
2021/08/23 05:18:23;;;;;;;;;;;;;;;35.91;19.54;94709.59;5117719;28;19931;-57
2021/08/23 05:20:50;;;;;;;;;;;;;;;35.86;19.96;94705.47;5118385;28;19920;-55
2021/08/23 05:23:16;;;;;;;;;;;;;;;36.14;19.43;94707.19;5117528;28;19924;-55
2021/08/23 05:25:43;;;;;;;;;;;;;;;36.10;19.75;94703.84;5117952;28;20234;-55
2021/08/23 05:28:10;;;;;;;;;;;;;;;36.36;19.56;94709.19;5117993;28;19916;-57
2021/08/23 05:30:37;;;;;;;;;;;;;;;36.14;19.80;94714.59;5118034;28;19922;-56
2021/08/23 05:33:04;;;;;;;;;;;;;;;34.31;21.68;94709.84;5107372;28;19923;-55
2021/08/23 05:35:31;;;;;;;;;;;;;;;35.67;20.00;94711.97;5097408;28;20312;-56
2021/08/23 05:37:58;;;;;;;;;;;;;;;35.65;19.74;94717.81;5097447;28;19916;-55
2021/08/23 05:40:26;;;;;;;;;;;;;;;34.80;21.18;94712.31;5104011;28;19916;-54
2021/08/23 05:42:53;;;;;;;;;;;;;;;35.50;20.33;94711.34;5117294;28;20345;-57
2021/08/23 05:45:20;;;;;;;;;;;;;;;35.91;19.50;94713.06;5117060;28;20353;-55
2021/08/23 05:47:47;;;;;;;;;;;;;;;36.47;19.04;94720.47;5115766;28;20245;-56
2021/08/23 05:50:13;;;;;;;;;;;;;;;36.57;19.08;94718.53;5113775;28;19916;-54
2021/08/23 05:52:40;;;;;;;;;;;;;;;36.50;19.29;94725.00;5107287;28;19946;-55
2021/08/23 05:55:07;;;;;;;;;;;;;;;36.70;19.05;94719.97;5117651;28;20239;-55
2021/08/23 05:57:34;;;;;;;;;;;;;;;36.87;19.15;94715.06;5116357;28;19915;-56
2021/08/23 06:00:01;;;;;;;;;;;;;;;36.71;19.28;94713.31;5099218;28;19916;-56
2021/08/23 06:02:30;;;;;;;;;;;;;;;36.91;18.81;94721.13;5098488;28;19931;-55
2021/08/23 06:04:57;;;;;;;;;;;;;;;37.13;18.66;94710.16;5117414;28;19927;-57
2021/08/23 06:07:24;;;;;;;;;;;;;;;36.94;18.44;94714.03;5116970;28;19919;-55
2021/08/23 06:09:51;;;;;;;;;;;;;;;37.50;18.06;94711.06;5116764;28;19930;-56
2021/08/23 06:12:18;;;;;;;;;;;;;;;37.71;17.67;94717.59;5123488;27;19923;-55
2021/08/23 06:14:45;;;;;;;;;;;;;;;38.80;17.17;94718.75;5131110;27;19926;-49
2021/08/23 06:17:12;;;;;;;;;;;;;;;39.48;16.07;94714.31;5128347;27;20286;-55
2021/08/23 06:19:39;;;;;;;;;;;;;;;39.63;16.08;94722.63;5116762;28;20249;-55
2021/08/23 06:22:05;;;;;;;;;;;;;;;39.88;15.73;94723.34;5121716;27;19919;-54
2021/08/23 06:24:32;;;;;;;;;;;;;;;39.81;15.87;94715.47;5137614;27;19923;-53
2021/08/23 06:27:01;;;;;;;;;;;;;;;39.96;15.48;94717.06;5137137;27;19922;-55
2021/08/23 06:29:28;;;;;;;;;;;;;;;40.08;15.65;94718.03;5137507;27;19923;-52
2021/08/23 06:31:55;;;;;;;;;;;;;;;40.16;15.34;94713.72;5137547;27;20217;-53
2021/08/23 06:34:21;;;;;;;;;;;;;;;40.35;15.29;94711.56;5132977;27;19916;-53
2021/08/23 06:36:48;;;;;;;;;;;;;;;40.47;15.24;94720.75;5124429;27;20310;-52
2021/08/23 06:39:15;;;;;;;;;;;;;;;39.99;15.56;94709.91;5136432;27;19915;-56
2021/08/23 06:41:42;;;;;;;;;;;;;;;40.21;15.26;94710.31;5135718;27;19924;-53
2021/08/23 06:44:12;;;;;;;;;;;;;;;40.58;15.09;94715.44;5137538;27;19923;-54
2021/08/23 06:46:39;;;;;;;;;;;;;;;40.36;15.32;94711.09;5137180;27;19916;-54
2021/08/23 06:49:06;;;;;;;;;;;;;;;40.53;15.33;94718.84;5137075;27;20412;-53
2021/08/23 06:51:33;;;;;;;;;;;;;;;40.65;14.99;94715.06;5137159;27;19950;-55
2021/08/23 06:54:00;;;;;;;;;;;;;;;40.60;14.96;94716.50;5137064;27;19919;-52
2021/08/23 06:56:27;;;;;;;;;;;;;;;40.97;14.73;94716.84;5136416;27;20217;-56
2021/08/23 06:58:55;;;;;;;;;;;;;;;40.74;14.72;94714.22;5136401;27;19922;-54
2021/08/23 07:01:24;;;;;;;;;;;;;;;41.02;14.93;94709.19;5136268;27;19919;-53
2021/08/23 07:03:51;;;;;;;;;;;;;;;41.23;14.90;94714.25;5136752;27;19915;-54
2021/08/23 07:06:18;;;;;;;;;;;;;;;41.26;14.86;94712.53;5136284;27;19938;-52
2021/08/23 07:08:45;;;;;;;;;;;;;;;41.07;14.64;94711.25;5136178;27;20265;-53
2021/08/23 07:11:12;;;;;;;;;;;;;;;40.84;15.12;94715.63;5136116;27;19919;-52
2021/08/23 07:13:39;;;;;;;;;;;;;;;40.94;14.87;94706.09;5134874;27;19923;-53
2021/08/23 07:16:06;;;;;;;;;;;;;;;41.36;14.45;94708.44;5136410;27;19985;-52
2021/08/23 07:18:33;;;;;;;;;;;;;;;41.01;14.73;94707.66;5136417;27;19926;-53
2021/08/23 07:21:00;;;;;;;;;;;;;;;41.48;14.46;94704.63;5136536;27;19923;-53
2021/08/23 07:23:27;;;;;;;;;;;;;;;41.27;14.20;94700.34;5135195;27;19920;-53
2021/08/23 07:25:55;;;;;;;;;;;;;;;42.12;13.97;94692.66;5135666;27;19919;-53
2021/08/23 07:28:21;;;;;;;;;;;;;;;42.10;14.40;94699.88;5135977;27;19915;-53
2021/08/23 07:30:48;;;;;;;;;;;;;;;42.25;13.80;94686.81;5136419;27;20241;-54
2021/08/23 07:33:15;;;;;;;;;;;;;;;41.86;14.14;94691.88;5136108;27;20348;-62
2021/08/23 07:35:42;;;;;;;;;;;;;;;42.67;13.02;94688.94;5135657;27;19916;-55
2021/08/23 07:38:09;;;;;;;;;;;;;;;42.66;13.47;94690.19;5134233;27;20341;-53
2021/08/23 07:40:36;;;;;;;;;;;;;;;42.48;13.55;94690.53;5114728;28;19922;-63
2021/08/23 07:43:03;;;;;;;;;;;;;;;42.28;13.33;94687.84;5125938;27;19935;-55
2021/08/23 07:45:30;;;;;;;;;;;;;;;42.34;13.87;94686.63;5136148;27;20356;-52
2021/08/23 07:47:57;;;;;;;;;;;;;;;42.47;13.38;94694.53;5135780;27;19922;-53
2021/08/23 07:50:26;;;;;;;;;;;;;;;42.16;13.72;94682.25;5136121;27;20341;-55
2021/08/23 07:52:52;;;;;;;;;;;;;;;42.13;14.01;94694.19;5135954;27;19939;-51
2021/08/23 07:55:19;;;;;;;;;;;;;;;42.15;13.96;94686.19;5136114;28;19954;-53
2021/08/23 07:57:47;;;;;;;;;;;;;;;42.46;13.46;94682.00;5129500;27;19927;-55
2021/08/23 08:00:15;;;;;;;;;;;;;;;42.42;13.53;94679.50;5115600;28;20233;-53
2021/08/23 08:02:41;;;;;;;;;;;;;;;42.16;13.32;94674.00;5122096;27;19923;-55
2021/08/23 08:05:08;;;;;;;;;;;;;;;41.84;13.49;94673.13;5136152;28;19920;-54
2021/08/23 08:07:37;;;;;;;;;;;;;;;41.34;14.21;94669.75;5135466;27;19919;-55
2021/08/23 08:10:05;;;;;;;;;;;;;;;41.73;13.76;94667.53;5130037;28;19920;-54
2021/08/23 08:12:32;;;;;;;;;;;;;;;41.43;13.60;94669.66;5100244;28;20242;-52
2021/08/23 08:14:59;;;;;;;;;;;;;;;41.54;13.88;94661.53;5115693;28;20207;-52
2021/08/23 08:17:26;;;;;;;;;;;;;;;41.47;14.37;94664.72;5114681;28;19927;-52
2021/08/23 08:19:53;;;;;;;;;;;;;;;41.26;14.41;94663.94;5115656;28;19930;-55
2021/08/23 08:22:20;;;;;;;;;;;;;;;41.55;13.98;94668.53;5115228;28;20298;-51
2021/08/23 08:24:47;;;;;;;;;;;;;;;41.95;13.48;94667.03;5115663;28;19930;-55
2021/08/23 08:27:14;;;;;;;;;;;;;;;42.01;13.55;94676.06;5114893;28;20218;-52
2021/08/23 08:29:40;;;;;;;;;;;;;;;42.17;13.64;94661.03;5114925;28;19916;-55
2021/08/23 08:32:08;;;;;;;;;;;;;;;42.68;13.49;94663.00;5115171;28;19916;-53
2021/08/23 08:34:34;;;;;;;;;;;;;;;43.03;13.27;94657.25;5112319;28;19927;-52
2021/08/23 08:37:02;;;;;;;;;;;;;;;42.77;12.92;94657.28;5108525;28;20262;-56
2021/08/23 08:39:28;;;;;;;;;;;;;;;42.78;13.16;94664.31;5115076;28;19946;-55
2021/08/23 08:41:55;;;;;;;;;;;;;;;42.65;12.79;94661.19;5113983;28;19923;-53
2021/08/23 08:44:22;;;;;;;;;;;;;;;42.69;12.62;94656.25;5096444;28;19920;-53
2021/08/23 08:46:49;;;;;;;;;;;;;;;42.87;13.05;94657.09;5115898;28;19923;-52
2021/08/23 08:49:16;;;;;;;;;;;;;;;42.70;12.69;94663.25;5118925;28;19916;-54
2021/08/23 08:51:43;;;;;;;;;;;;;;;42.02;12.95;94663.09;5100980;28;19924;-53
2021/08/23 08:54:10;;;;;;;;;;;;;;;42.28;12.95;94663.13;5118878;28;20246;-55
2021/08/23 08:56:36;;;;;;;;;;;;;;;42.76;12.74;94655.78;5118723;28;19939;-54
2021/08/23 08:59:03;;;;;;;;;;;;;;;42.79;12.74;94649.31;5118852;28;19919;-54
2021/08/23 09:01:30;;;;;;;;;;;;;;;42.56;12.84;94647.66;5113426;28;19916;-55
2021/08/23 09:04:04;;;;;;;;;;;;;;;42.45;13.38;94642.03;5113761;28;19923;-53
2021/08/23 09:06:40;;;;;;;;;;;;;;;42.78;12.83;94641.56;5118136;28;19916;-58
2021/08/23 09:09:11;;;;;;;;;;;;;;;42.44;13.28;94637.78;5118205;28;19924;-54
2021/08/23 09:11:39;;;;;;;;;;;;;;;42.55;13.08;94634.41;5126501;27;19972;-54
2021/08/23 09:14:07;;;;;;;;;;;;;;;42.69;12.62;94628.78;5138966;27;19926;-54
2021/08/23 09:16:35;;;;;;;;;;;;;;;42.77;13.33;94637.31;5138195;27;19916;-60
2021/08/23 09:19:02;;;;;;;;;;;;;;;42.64;12.86;94632.22;5138135;27;19915;-54
2021/08/23 09:21:30;;;;;;;;;;;;;;;42.12;13.40;94637.00;5138834;27;19945;-53
2021/08/23 09:24:00;;;;;;;;;;;;;;;42.64;13.14;94632.22;5139085;27;19919;-53
2021/08/23 09:26:31;;;;;;;;;;;;;;;42.35;13.31;94626.97;5139057;27;19946;-55
2021/08/23 09:28:59;;;;;;;;;;;;;;;42.43;13.21;94617.06;5138607;27;20241;-53
2021/08/23 09:31:26;;;;;;;;;;;;;;;42.54;13.44;94616.41;5138607;27;19946;-53
2021/08/23 09:33:56;;;;;;;;;;;;;;;42.67;12.81;94614.75;5138759;27;19919;-54
2021/08/23 09:36:23;;;;;;;;;;;;;;;42.91;13.04;94616.41;5138891;27;19923;-53
2021/08/23 09:39:00;;;;;;;;;;;;;;;42.69;12.73;94612.28;5138100;27;19915;-53
2021/08/23 09:41:27;;;;;;;;;;;;;;;42.43;13.19;94617.06;5137189;27;19920;-56
2021/08/23 09:43:58;;;;;;;;;;;;;;;42.43;12.89;94611.56;5138756;27;20314;-62
2021/08/23 09:46:25;;;;;;;;;;;;;;;42.72;12.55;94607.81;5138214;27;19915;-53
2021/08/23 09:48:55;;;;;;;;;;;;;;;42.79;12.46;94602.59;5137602;27;19923;-53
2021/08/23 09:51:28;;;;;;;;;;;;;;;42.77;12.62;94596.84;5138335;27;19919;-54
2021/08/23 09:54:07;;;;;;;;;;;;;;;43.04;12.35;94603.00;5137786;27;19915;-53
2021/08/23 09:56:35;;;;;;;;;;;;;;;42.71;12.27;94593.31;5138021;27;19920;-53
2021/08/23 09:59:02;;;;;;;;;;;;;;;42.68;12.62;94588.78;5137475;27;20280;-54
2021/08/23 10:01:31;;;;;;;;;;;;;;;42.75;12.10;94593.06;5137331;27;19915;-53
2021/08/23 10:04:00;;;;;;;;;;;;;;;43.08;12.21;94585.03;5138336;27;20349;-55
2021/08/23 10:06:27;;;;;;;;;;;;;;;43.16;11.84;94577.03;5120260;27;20245;-54
2021/08/23 10:08:53;;;;;;;;;;;;;;;43.14;11.75;94587.03;5137928;27;19930;-56
2021/08/23 10:11:20;;;;;;;;;;;;;;;43.23;11.77;94571.09;5136157;27;19928;-54
2021/08/23 10:13:47;;;;;;;;;;;;;;;43.37;11.77;94578.41;5137924;27;19954;-54
2021/08/23 10:16:14;;;;;;;;;;;;;;;42.84;11.50;94573.63;5117913;27;19993;-57
2021/08/23 10:18:41;;;;;;;;;;;;;;;42.67;11.52;94576.25;5127292;27;19922;-54
2021/08/23 10:21:08;;;;;;;;;;;;;;;42.72;11.78;94567.31;5121419;27;19915;-55
2021/08/23 10:23:36;;;;;;;;;;;;;;;43.37;11.44;94569.41;5137043;27;19919;-54
2021/08/23 10:26:02;;;;;;;;;;;;;;;43.00;11.60;94573.00;5119375;27;19926;-53
2021/08/23 10:28:35;;;;;;;;;;;;;;;42.81;11.39;94568.38;5119425;27;20245;-55
2021/08/23 10:31:08;;;;;;;;;;;;;;;42.53;11.60;94560.72;5137495;27;19926;-53
2021/08/23 10:33:40;;;;;;;;;;;;;;;42.85;11.84;94563.38;5137551;27;19923;-56
2021/08/23 10:36:07;;;;;;;;;;;;;;;42.93;11.43;94556.19;5137765;27;19915;-54
2021/08/23 10:38:34;;;;;;;;;;;;;;;43.30;11.04;94553.38;5136502;27;20424;-55
2021/08/23 10:41:14;;;;;;;;;;;;;;;42.98;11.00;94555.50;5126001;27;20259;-53
2021/08/23 10:43:45;;;;;;;;;;;;;;;43.44;10.79;94546.91;5136399;27;19923;-54
2021/08/23 10:46:18;;;;;;;;;;;;;;;43.13;11.02;94528.53;5135979;27;19915;-58
2021/08/23 10:48:46;;;;;;;;;;;;;;;42.75;11.20;94552.59;5137063;27;19923;-54
2021/08/23 10:51:14;;;;;;;;;;;;;;;42.91;11.55;94540.19;5136805;27;19926;-54
2021/08/23 10:53:46;;;;;;;;;;;;;;;42.51;11.60;94532.97;5119406;27;19919;-55
2021/08/23 10:56:14;;;;;;;;;;;;;;;42.56;11.39;94526.75;5137466;27;20173;-55
2021/08/23 10:58:40;;;;;;;;;;;;;;;42.91;11.18;94523.69;5145860;27;19919;-54
2021/08/23 11:01:19;;;;;;;;;;;;;;;42.65;11.18;94523.81;5157633;27;19915;-54
2021/08/23 11:03:46;;;;;;;;;;;;;;;43.01;11.23;94510.50;5157083;27;19923;-55
2021/08/23 11:06:13;;;;;;;;;;;;;;;42.92;11.25;94516.22;5139623;27;19915;-55
2021/08/23 11:08:42;;;;;;;;;;;;;;;42.50;10.81;94506.75;5157289;27;19915;-55
2021/08/23 11:11:12;;;;;;;;;;;;;;;42.35;11.03;94506.13;5118934;27;20230;-54
2021/08/23 11:13:40;;;;;;;;;;;;;;;42.27;11.44;94503.09;5096069;28;19927;-58
2021/08/23 11:16:07;;;;;;;;;;;;;;;42.32;11.23;94510.59;5095473;28;20220;-55
2021/08/23 11:18:41;;;;;;;;;;;;;;;42.49;10.73;94508.00;5114282;28;20576;-56
2021/08/23 11:21:17;;;;;;;;;;;;;;;42.58;10.61;94496.78;5115292;28;19919;-55
2021/08/23 11:23:45;;;;;;;;;;;;;;;42.53;10.50;94500.28;5116193;28;19938;-56
2021/08/23 11:26:19;;;;;;;;;;;;;;;42.90;10.59;94491.97;5116255;28;20226;-52
2021/08/23 11:28:46;;;;;;;;;;;;;;;42.82;10.54;94484.66;5115550;28;19920;-54
2021/08/23 11:31:13;;;;;;;;;;;;;;;42.71;10.51;94488.88;5116238;28;19919;-55
2021/08/23 11:33:40;;;;;;;;;;;;;;;42.74;10.49;94493.38;5114046;28;19922;-55
2021/08/23 11:36:08;;;;;;;;;;;;;;;42.85;10.16;94486.41;5116270;28;19923;-56
2021/08/23 11:38:36;;;;;;;;;;;;;;;42.69;10.11;94480.38;5115400;28;19919;-55
2021/08/23 11:41:04;;;;;;;;;;;;;;;42.70;10.38;94481.88;5102550;28;19920;-57
2021/08/23 11:43:32;;;;;;;;;;;;;;;42.83;10.14;94472.41;5095090;28;19928;-53
2021/08/23 11:45:59;;;;;;;;;;;;;;;42.64;10.21;94478.34;5095109;28;20315;-53
2021/08/23 11:48:27;;;;;;;;;;;;;;;42.60;10.26;94480.56;5112019;28;20356;-54
2021/08/23 11:50:54;;;;;;;;;;;;;;;42.71;10.50;94472.38;5115888;28;19919;-56
2021/08/23 11:53:27;;;;;;;;;;;;;;;42.93;9.89;94477.22;5115921;28;20238;-52
2021/08/23 11:56:02;;;;;;;;;;;;;;;42.68;9.91;94478.88;5115950;28;20314;-52
2021/08/23 11:58:34;;;;;;;;;;;;;;;42.76;10.20;94474.41;5115220;28;19958;-54
2021/08/23 12:01:02;;;;;;;;;;;;;;;42.96;10.09;94470.00;5115392;28;19915;-54
2021/08/23 12:03:30;;;;;;;;;;;;;;;43.19;10.06;94459.81;5114903;28;20314;-55
2021/08/23 12:06:01;;;;;;;;;;;;;;;43.35;9.86;94462.63;5115518;28;19919;-53
2021/08/23 12:08:30;;;;;;;;;;;;;;;42.93;9.96;94457.97;5115014;28;19915;-53
2021/08/23 12:11:01;;;;;;;;;;;;;;;42.38;10.19;94459.19;5125088;27;19930;-57
2021/08/23 12:13:37;;;;;;;;;;;;;;;42.39;10.60;94451.69;5156113;27;19930;-54
2021/08/23 12:16:08;;;;;;;;;;;;;;;42.82;10.21;94457.19;5155607;27;19925;-53
2021/08/23 12:18:36;;;;;;;;;;;;;;;42.72;9.75;94454.66;5156229;27;19922;-53
2021/08/23 12:21:09;;;;;;;;;;;;;;;43.06;9.73;94443.78;5156759;27;19930;-52
2021/08/23 12:23:47;;;;;;;;;;;;;;;43.29;9.71;94442.63;5160612;27;20243;-57
2021/08/23 12:26:14;;;;;;;;;;;;;;;42.99;9.97;94453.28;5159864;27;19922;-55
2021/08/23 12:28:51;;;;;;;;;;;;;;;42.16;10.48;94443.38;5160250;27;19915;-54
2021/08/23 12:31:18;;;;;;;;;;;;;;;42.57;9.88;94442.34;5160589;27;19915;-53
2021/08/23 12:33:45;;;;;;;;;;;;;;;42.31;10.21;94434.19;5159670;27;19919;-54
2021/08/23 12:36:12;;;;;;;;;;;;;;;42.65;9.79;94444.13;5160114;27;19919;-55
2021/08/23 12:38:41;;;;;;;;;;;;;;;42.47;10.24;94436.31;5160091;27;19922;-57
2021/08/23 12:41:08;;;;;;;;;;;;;;;42.59;10.10;94435.09;5132383;27;19920;-58
2021/08/23 12:43:35;;;;;;;;;;;;;;;42.67;9.81;94433.38;5118906;28;19931;-53
2021/08/23 12:46:03;;;;;;;;;;;;;;;42.57;9.99;94426.59;5119004;27;19924;-53
2021/08/23 12:48:30;;;;;;;;;;;;;;;42.88;9.70;94435.97;5139184;27;19922;-57
2021/08/23 12:51:01;;;;;;;;;;;;;;;42.74;9.46;94427.44;5139491;27;19923;-54